Time;durP1;ratioP1;P1;durP2;ratioP2;P2;SDS_P1;SDS_P2;PMS_P1;PMS_P2;Temp;Humidity;BMP_temperature;BMP_pressure;BME280_temperature;BME280_humidity;BME280_pressure;Samples;Min_cycle;Max_cycle;Signal;HPM_P1;HPM_P2
2022/07/31 00:00:09;;;;;;;4.90;2.65;;;21.00;73.20;;;;;;5033930;28;20107;-69
2022/07/31 00:02:35;;;;;;;4.47;2.88;;;20.90;73.30;;;;;;5033482;28;20014;-65
2022/07/31 00:05:02;;;;;;;4.55;2.47;;;20.90;73.30;;;;;;5033977;28;20025;-65
2022/07/31 00:07:27;;;;;;;5.55;2.67;;;20.90;73.40;;;;;;5034078;28;20112;-66
2022/07/31 00:09:54;;;;;;;5.43;2.50;;;20.90;73.40;;;;;;5033019;28;20104;-70
2022/07/31 00:12:20;;;;;;;4.90;2.50;;;20.80;73.40;;;;;;5034156;28;20152;-66
2022/07/31 00:14:46;;;;;;;3.42;2.55;;;20.80;73.80;;;;;;5032368;28;20057;-65
2022/07/31 00:17:12;;;;;;;4.22;2.40;;;20.70;74.10;;;;;;5032416;28;20029;-65
2022/07/31 00:19:38;;;;;;;5.13;3.00;;;20.70;74.40;;;;;;5034190;28;20065;-74
2022/07/31 00:22:04;;;;;;;3.75;2.42;;;20.70;74.60;;;;;;5032152;28;20060;-73
2022/07/31 00:24:29;;;;;;;4.78;2.72;;;20.60;74.70;;;;;;5031951;28;20032;-73
2022/07/31 00:26:55;;;;;;;5.30;2.72;;;20.60;74.90;;;;;;5032463;28;20025;-74
2022/07/31 00:29:21;;;;;;;4.10;2.65;;;20.60;75.00;;;;;;5033886;28;20026;-74
2022/07/31 00:31:46;;;;;;;4.35;2.63;;;20.60;75.30;;;;;;5032819;28;20067;-60
2022/07/31 00:34:12;;;;;;;4.82;3.00;;;20.60;75.40;;;;;;5033574;28;20177;-74
2022/07/31 00:36:38;;;;;;;4.60;2.70;;;20.60;75.50;;;;;;5033566;28;20121;-73
2022/07/31 00:39:04;;;;;;;4.47;2.72;;;20.60;75.60;;;;;;5031645;28;20032;-73
2022/07/31 00:41:41;;;;;;;5.80;2.70;;;20.60;75.70;;;;;;5033405;28;20029;-67
2022/07/31 00:44:07;;;;;;;5.65;3.00;;;20.50;75.80;;;;;;5032985;28;20025;-69
2022/07/31 00:46:32;;;;;;;4.82;3.08;;;20.50;76.00;;;;;;5032831;28;20026;-57
2022/07/31 00:48:58;;;;;;;5.47;3.15;;;20.50;76.30;;;;;;5033013;28;20033;-60
2022/07/31 00:51:24;;;;;;;3.60;2.47;;;20.40;76.60;;;;;;5032453;28;20107;-70
2022/07/31 00:53:49;;;;;;;4.13;2.78;;;20.30;76.80;;;;;;5032857;28;20393;-62
2022/07/31 00:56:15;;;;;;;4.10;2.85;;;20.20;77.00;;;;;;5033195;28;20108;-58
2022/07/31 00:58:40;;;;;;;4.15;2.28;;;20.20;77.20;;;;;;5032352;28;20103;-63
2022/07/31 01:01:06;;;;;;;5.88;2.55;;;20.10;77.30;;;;;;5032832;28;20038;-67
2022/07/31 01:03:32;;;;;;;3.60;2.50;;;20.10;77.60;;;;;;5032988;28;20017;-62
2022/07/31 01:05:57;;;;;;;3.83;2.30;;;20.10;77.70;;;;;;5032244;28;20032;-67
2022/07/31 01:08:23;;;;;;;4.25;2.60;;;20.00;77.90;;;;;;5033025;28;20031;-63
2022/07/31 01:11:00;;;;;;;4.63;2.80;;;20.00;78.00;;;;;;5031368;28;20458;-61
2022/07/31 01:13:34;;;;;;;5.20;3.58;;;19.90;78.10;;;;;;5032162;28;20029;-66
2022/07/31 01:16:02;;;;;;;6.25;3.30;;;19.90;78.20;;;;;;5032508;28;20121;-61
2022/07/31 01:18:31;;;;;;;5.45;3.35;;;19.90;78.50;;;;;;5032645;28;20022;-58
2022/07/31 01:21:02;;;;;;;5.22;2.72;;;19.80;78.60;;;;;;5031625;28;20109;-66
2022/07/31 01:23:55;;;;;;;3.63;2.60;;;19.80;78.70;;;;;;5032766;28;20024;-59
2022/07/31 01:26:41;;;;;;;4.15;2.42;;;19.80;78.90;;;;;;4995970;28;20065;-58
2022/07/31 01:29:20;;;;;;;3.83;2.65;;;19.80;79.10;;;;;;5032195;28;20139;-66
2022/07/31 01:32:01;;;;;;;6.03;2.88;;;19.70;79.20;;;;;;5032491;28;20025;-64
2022/07/31 01:34:38;;;;;;;;;;;19.70;79.40;;;;;;5032060;28;20132;-65
2022/07/31 01:37:19;;;;;;;4.18;2.53;;;19.60;79.60;;;;;;5032010;28;19905;-66
2022/07/31 01:39:53;;;;;;;3.85;2.03;;;19.50;80.40;;;;;;5032430;28;20032;-55
2022/07/31 01:42:20;;;;;;;4.82;2.92;;;19.50;80.00;;;;;;5030115;28;20026;-53
2022/07/31 01:44:52;;;;;;;4.72;2.63;;;19.50;80.20;;;;;;5031868;28;20091;-56
2022/07/31 01:47:20;;;;;;;4.80;2.65;;;19.40;80.30;;;;;;5031882;28;20466;-54
2022/07/31 01:49:51;;;;;;;3.55;2.33;;;19.40;80.40;;;;;;5031266;28;20025;-56
2022/07/31 01:52:19;;;;;;;4.82;2.80;;;19.40;80.60;;;;;;5031818;28;20013;-54
2022/07/31 01:54:46;;;;;;;5.18;2.65;;;19.40;80.70;;;;;;5031392;28;20119;-51
2022/07/31 01:57:14;;;;;;;4.55;2.72;;;19.40;80.80;;;;;;5031822;28;20017;-52
2022/07/31 01:59:41;;;;;;;5.25;2.67;;;19.40;80.80;;;;;;5031553;28;20041;-54
2022/07/31 02:02:07;;;;;;;4.20;2.78;;;19.50;81.00;;;;;;5030865;28;20055;-54
2022/07/31 02:04:33;;;;;;;4.75;2.90;;;19.50;81.00;;;;;;5031640;28;20547;-58
2022/07/31 02:07:02;;;;;;;3.60;2.40;;;19.50;80.90;;;;;;5031171;28;20653;-57
2022/07/31 02:09:30;;;;;;;3.83;2.67;;;19.50;80.90;;;;;;5031433;28;20381;-68
2022/07/31 02:11:56;;;;;;;5.25;3.03;;;19.50;80.80;;;;;;5031660;28;20022;-70
2022/07/31 02:14:23;;;;;;;6.00;2.70;;;19.60;80.70;;;;;;5032261;28;20409;-74
2022/07/31 02:16:50;;;;;;;5.57;3.05;;;19.60;80.50;;;;;;5030876;28;20029;-71
2022/07/31 02:19:18;;;;;;;4.30;2.50;;;19.60;80.40;;;;;;5031752;28;20026;-71
2022/07/31 02:21:44;;;;;;;4.63;2.72;;;19.60;80.40;;;;;;5031854;28;20121;-74
2022/07/31 02:24:10;;;;;;;4.10;2.97;;;19.70;80.40;;;;;;5031152;28;20104;-73
2022/07/31 02:26:37;;;;;;;4.45;2.88;;;19.70;80.40;;;;;;5031658;28;20028;-67
2022/07/31 02:29:05;;;;;;;4.47;3.10;;;19.70;80.40;;;;;;5031448;28;20018;-70
2022/07/31 02:31:33;;;;;;;6.30;3.40;;;19.70;80.50;;;;;;5031149;28;20033;-73
2022/07/31 02:33:59;;;;;;;5.50;3.63;;;19.70;80.40;;;;;;5030744;28;20056;-74
2022/07/31 02:36:28;;;;;;;8.05;4.90;;;19.70;80.30;;;;;;5031046;28;20029;-67
2022/07/31 02:38:56;;;;;;;6.82;4.75;;;19.70;80.30;;;;;;5030420;28;20378;-66
2022/07/31 02:41:23;;;;;;;9.43;6.00;;;19.70;80.40;;;;;;5031295;28;20029;-74
2022/07/31 02:43:50;;;;;;;10.90;6.45;;;19.60;80.30;;;;;;5030355;28;20025;-73
2022/07/31 02:46:16;;;;;;;11.40;5.85;;;19.60;80.60;;;;;;5031717;28;20026;-63
2022/07/31 02:48:43;;;;;;;8.85;6.47;;;19.50;80.60;;;;;;5028691;28;20160;-74
2022/07/31 02:51:08;;;;;;;10.07;5.85;;;19.50;80.70;;;;;;5017929;28;20034;-74
2022/07/31 02:53:36;;;;;;;8.60;5.30;;;19.50;80.90;;;;;;5011904;28;20033;-74
2022/07/31 02:56:03;;;;;;;7.45;5.13;;;19.40;81.20;;;;;;5011254;28;20044;-74
2022/07/31 02:58:29;;;;;;;9.15;4.60;;;19.30;81.60;;;;;;5028682;28;20481;-73
2022/07/31 03:01:04;;;;;;;6.80;4.60;;;19.30;82.00;;;;;;5030864;28;20045;-74
2022/07/31 03:03:30;;;;;;;6.30;4.53;;;19.30;82.30;;;;;;5031315;28;20108;-69
2022/07/31 03:05:55;;;;;;;5.97;3.83;;;19.30;82.40;;;;;;5030456;28;20176;-73
2022/07/31 03:08:21;;;;;;;5.30;3.72;;;19.20;82.40;;;;;;5031069;28;20032;-66
2022/07/31 03:10:47;;;;;;;5.80;4.03;;;19.30;82.60;;;;;;5030784;28;20101;-64
2022/07/31 03:13:14;;;;;;;5.78;4.28;;;19.30;82.70;;;;;;5030353;28;20034;-67
2022/07/31 03:15:41;;;;;;;8.07;4.45;;;19.20;82.80;;;;;;5031088;28;20030;-67
2022/07/31 03:18:10;;;;;;;6.47;3.92;;;19.30;82.90;;;;;;5030816;28;20025;-72
2022/07/31 03:20:36;;;;;;;7.88;4.65;;;19.30;82.80;;;;;;5030409;28;20087;-63
2022/07/31 03:23:03;;;;;;;5.00;4.00;;;19.30;82.80;;;;;;5030590;28;20025;-69
2022/07/31 03:25:30;;;;;;;6.90;4.20;;;19.20;82.90;;;;;;5022846;28;20076;-63
2022/07/31 03:27:55;;;;;;;6.15;4.38;;;19.30;83.10;;;;;;5010089;28;20091;-73
2022/07/31 03:30:23;;;;;;;6.88;4.47;;;19.30;83.20;;;;;;5011300;28;20034;-69
2022/07/31 03:32:55;;;;;;;7.93;4.20;;;19.30;83.20;;;;;;5010993;28;20069;-73
2022/07/31 03:35:22;;;;;;;5.63;4.03;;;19.30;83.30;;;;;;5010199;28;20042;-73
2022/07/31 03:37:47;;;;;;;6.30;3.83;;;19.30;83.30;;;;;;5010853;28;20080;-54
2022/07/31 03:40:13;;;;;;;5.95;3.35;;;19.30;83.40;;;;;;5010108;28;20029;-54
2022/07/31 03:42:39;;;;;;;5.00;3.42;;;19.40;83.40;;;;;;4993084;28;20068;-52
2022/07/31 03:45:07;;;;;;;6.25;4.05;;;19.30;83.40;;;;;;5010346;28;20114;-54
2022/07/31 03:47:33;;;;;;;7.68;3.92;;;19.30;83.40;;;;;;5010228;28;20060;-52
2022/07/31 03:50:00;;;;;;;5.78;3.80;;;19.30;83.60;;;;;;5029429;28;20030;-54
2022/07/31 03:52:27;;;;;;;7.30;4.38;;;19.30;83.60;;;;;;5014486;28;20018;-55
2022/07/31 03:54:53;;;;;;;5.65;4.25;;;19.30;83.60;;;;;;5013329;28;20485;-54
2022/07/31 03:57:19;;;;;;;5.90;4.28;;;19.30;83.80;;;;;;5014161;28;20061;-53
2022/07/31 03:59:46;;;;;;;6.63;4.20;;;19.30;83.90;;;;;;5014310;28;20060;-52
2022/07/31 04:02:11;;;;;;;5.85;3.67;;;19.30;84.00;;;;;;5028641;28;20514;-53
2022/07/31 04:04:37;;;;;;;5.47;4.03;;;19.30;84.10;;;;;;5013609;28;20087;-54
2022/07/31 04:07:04;;;;;;;5.50;3.80;;;19.30;84.20;;;;;;5012983;28;20018;-52
2022/07/31 04:09:30;;;;;;;6.43;4.40;;;19.30;84.40;;;;;;5011958;28;20486;-56
2022/07/31 04:11:56;;;;;;;7.50;4.13;;;19.30;84.50;;;;;;5013137;28;20018;-55
2022/07/31 04:14:22;;;;;;;9.90;5.50;;;19.30;84.50;;;;;;5013701;28;20037;-54
2022/07/31 04:16:48;;;;;;;8.40;4.85;;;19.30;84.40;;;;;;5012938;28;20478;-53
2022/07/31 04:19:13;;;;;;;15.85;7.95;;;19.30;84.30;;;;;;5013665;28;20382;-58
2022/07/31 04:21:39;;;;;;;15.73;10.57;;;19.40;84.30;;;;;;5013215;28;20132;-58
2022/07/31 04:24:06;;;;;;;16.20;9.23;;;19.40;84.20;;;;;;5014330;28;20030;-71
2022/07/31 04:26:32;;;;;;;14.50;9.48;;;19.40;84.20;;;;;;5035603;28;20024;-68
2022/07/31 04:28:57;;;;;;;15.48;9.18;;;19.40;84.20;;;;;;5033086;28;20017;-69
2022/07/31 04:31:23;;;;;;;13.68;9.10;;;19.40;84.20;;;;;;5032600;28;20033;-73
2022/07/31 04:33:49;;;;;;;13.88;8.82;;;19.40;84.20;;;;;;5022616;28;20038;-70
2022/07/31 04:36:16;;;;;;;11.98;6.97;;;19.50;84.10;;;;;;5013619;28;20054;-73
2022/07/31 04:38:42;;;;;;;10.00;5.90;;;19.50;84.00;;;;;;5013054;28;20064;-68
2022/07/31 04:41:07;;;;;;;10.70;5.88;;;19.50;83.90;;;;;;5012750;28;20053;-76
2022/07/31 04:43:33;;;;;;;9.30;4.93;;;19.60;83.80;;;;;;5015124;28;20053;-74
2022/07/31 04:45:58;;;;;;;6.45;4.45;;;19.60;83.70;;;;;;5013477;28;20434;-69
2022/07/31 04:48:24;;;;;;;5.75;3.70;;;19.60;83.40;;;;;;4997738;28;20065;-74
2022/07/31 04:50:50;;;;;;;5.53;3.38;;;19.70;83.20;;;;;;4993220;28;20110;-67
2022/07/31 04:53:15;;;;;;;5.65;3.45;;;19.70;83.10;;;;;;5013667;28;20474;-72
2022/07/31 04:55:41;;;;;;;6.22;3.80;;;19.70;83.20;;;;;;5013329;28;20041;-74
2022/07/31 04:58:06;;;;;;;6.93;4.10;;;19.60;84.50;;;;;;5012449;28;20030;-74
2022/07/31 05:00:32;;;;;;;4.60;3.60;;;19.50;85.10;;;;;;5012033;28;20030;-70
2022/07/31 05:02:58;;;;;;;6.38;3.58;;;19.40;85.40;;;;;;4999985;28;20027;-72
2022/07/31 05:05:23;;;;;;;6.10;3.15;;;19.30;85.50;;;;;;4992841;28;20026;-74
2022/07/31 05:07:49;;;;;;;5.38;3.35;;;19.40;85.70;;;;;;4993483;28;20058;-68
2022/07/31 05:12:59;;;;;;;6.88;3.63;;;19.50;85.10;;;;;;4999844;28;20506;-70
2022/07/31 05:15:24;;;;;;;6.75;3.90;;;19.60;84.60;;;;;;4993509;28;20035;-71
2022/07/31 05:17:50;;;;;;;7.63;4.00;;;19.70;84.20;;;;;;4993390;28;20431;-73
2022/07/31 05:20:16;;;;;;;5.00;3.38;;;19.70;83.70;;;;;;4992996;28;20037;-71
2022/07/31 05:22:42;;;;;;;4.85;3.67;;;19.80;83.30;;;;;;5011909;28;20383;-73
2022/07/31 05:25:08;;;;;;;3.97;3.03;;;19.90;83.00;;;;;;5044342;28;20053;-75
2022/07/31 05:27:34;;;;;;;5.32;3.08;;;20.00;82.80;;;;;;5012114;28;20034;-71
2022/07/31 05:29:59;;;;;;;7.70;3.50;;;20.00;82.70;;;;;;5015276;28;20088;-61
2022/07/31 05:32:25;;;;;;;5.70;2.72;;;20.00;82.70;;;;;;5011952;28;20154;-67
2022/07/31 05:34:50;;;;;;;4.78;2.78;;;20.10;82.70;;;;;;5026826;28;20410;-68
2022/07/31 05:37:16;;;;;;;4.20;2.70;;;20.10;83.30;;;;;;5047539;28;20532;-58
2022/07/31 05:39:41;;;;;;;4.45;2.75;;;20.10;83.40;;;;;;5031218;28;20064;-54
2022/07/31 05:42:07;;;;;;;4.10;2.92;;;20.10;83.40;;;;;;5034409;28;20021;-55
2022/07/31 05:44:32;;;;;;;4.50;2.72;;;20.10;83.90;;;;;;5032046;28;20040;-56
2022/07/31 05:46:58;;;;;;;5.78;3.28;;;20.20;83.90;;;;;;5030885;28;20033;-57
2022/07/31 05:49:25;;;;;;;4.00;2.60;;;20.30;83.80;;;;;;5031963;28;20021;-58
2022/07/31 05:51:53;;;;;;;4.57;2.80;;;20.30;83.90;;;;;;5033631;28;20487;-54
2022/07/31 05:54:19;;;;;;;4.30;2.90;;;20.40;83.70;;;;;;5031103;28;20060;-54
2022/07/31 05:56:44;;;;;;;5.63;3.00;;;20.50;83.70;;;;;;5031725;28;20026;-56
2022/07/31 05:59:10;;;;;;;4.38;2.88;;;20.50;83.80;;;;;;5030905;28;20052;-58
2022/07/31 06:01:36;;;;;;;5.82;2.80;;;20.60;83.60;;;;;;5021476;28;20419;-54
2022/07/31 06:04:02;;;;;;;5.95;3.30;;;20.60;84.20;;;;;;5011511;28;20026;-56
2022/07/31 06:06:27;;;;;;;5.50;3.65;;;20.60;83.50;;;;;;5011836;28;20508;-54
2022/07/31 06:08:53;;;;;;;6.28;3.38;;;20.70;83.30;;;;;;5010814;28;20026;-53
2022/07/31 06:11:19;;;;;;;6.35;3.95;;;20.70;83.30;;;;;;5028443;28;20383;-55
2022/07/31 06:13:45;;;;;;;4.82;3.30;;;20.80;83.30;;;;;;5029241;28;20110;-55
2022/07/31 06:16:12;;;;;;;6.53;4.65;;;20.80;83.10;;;;;;5030801;28;20167;-54
2022/07/31 06:18:38;;;;;;;7.97;5.20;;;20.80;83.00;;;;;;5031549;28;20022;-51
2022/07/31 06:21:04;;;;;;;8.82;5.15;;;20.90;82.60;;;;;;5027625;28;20033;-54
2022/07/31 06:23:30;;;;;;;10.88;5.57;;;20.90;82.40;;;;;;5011151;28;20478;-54
2022/07/31 06:25:55;;;;;;;7.88;5.47;;;20.90;82.50;;;;;;5011168;28;20475;-55
2022/07/31 06:28:21;;;;;;;9.15;5.85;;;20.90;82.40;;;;;;5029034;28;20032;-54
2022/07/31 06:30:47;;;;;;;9.30;5.72;;;21.00;82.40;;;;;;5030783;28;20028;-54
2022/07/31 06:33:12;;;;;;;9.27;4.97;;;21.00;82.30;;;;;;5034080;28;20107;-56
2022/07/31 06:35:38;;;;;;;9.23;5.55;;;21.00;82.30;;;;;;5030944;28;20039;-57
2022/07/31 06:38:03;;;;;;;9.07;5.53;;;21.10;82.30;;;;;;5030018;28;20021;-57
2022/07/31 06:40:29;;;;;;;8.77;5.03;;;21.10;82.00;;;;;;5031313;28;20120;-60
2022/07/31 06:42:55;;;;;;;9.57;6.68;;;21.20;82.60;;;;;;5030718;28;20021;-56
2022/07/31 06:45:20;;;;;;;9.88;5.97;;;21.20;81.70;;;;;;5030649;28;20030;-62
2022/07/31 06:47:46;;;;;;;10.45;6.32;;;21.20;81.70;;;;;;5030744;28;20523;-60
2022/07/31 06:50:12;;;;;;;12.80;6.50;;;21.20;81.30;;;;;;5030478;28;20147;-65
2022/07/31 06:52:38;;;;;;;10.82;5.90;;;21.30;81.30;;;;;;5030993;28;20466;-62
2022/07/31 06:55:05;;;;;;;11.23;6.85;;;21.40;81.30;;;;;;5029246;28;20128;-63
2022/07/31 06:57:30;;;;;;;10.57;7.20;;;21.50;81.20;;;;;;5030364;28;20524;-68
2022/07/31 06:59:56;;;;;;;10.60;6.32;;;21.50;81.20;;;;;;5030780;28;20029;-65
2022/07/31 07:02:22;;;;;;;9.48;6.07;;;21.60;80.90;;;;;;5031273;28;20071;-64
2022/07/31 07:04:47;;;;;;;11.15;7.50;;;21.70;80.80;;;;;;5030470;28;20059;-74
2022/07/31 07:07:13;;;;;;;11.80;7.85;;;21.80;80.60;;;;;;5031137;28;20022;-72
2022/07/31 07:09:39;;;;;;;11.82;7.50;;;21.70;80.30;;;;;;5030991;28;20394;-68
2022/07/31 07:12:04;;;;;;;13.73;8.50;;;21.70;80.30;;;;;;5030222;28;20128;-65
2022/07/31 07:14:30;;;;;;;11.98;8.30;;;21.70;80.20;;;;;;5030013;28;20029;-65
2022/07/31 07:16:56;;;;;;;13.98;8.75;;;21.70;80.00;;;;;;5016080;28;20034;-72
2022/07/31 07:19:21;;;;;;;15.15;8.95;;;21.70;80.00;;;;;;5030234;28;20017;-69
2022/07/31 07:21:47;;;;;;;15.65;8.57;;;21.70;79.70;;;;;;5030445;28;20049;-64
2022/07/31 07:24:12;;;;;;;12.60;8.15;;;21.70;79.90;;;;;;5033926;28;20029;-72
2022/07/31 07:26:38;;;;;;;13.07;7.53;;;21.70;79.80;;;;;;5034524;28;20123;-74
2022/07/31 07:29:03;;;;;;;14.60;9.52;;;21.80;79.70;;;;;;5034942;28;20410;-61
2022/07/31 07:31:29;;;;;;;13.07;8.30;;;21.90;79.50;;;;;;5034838;28;20029;-75
2022/07/31 07:33:55;;;;;;;10.32;7.57;;;22.00;79.10;;;;;;5033482;28;20402;-71
2022/07/31 07:36:21;;;;;;;14.15;9.45;;;22.00;79.00;;;;;;5034840;28;20112;-68
2022/07/31 07:38:47;;;;;;;15.52;10.52;;;22.00;79.10;;;;;;5033633;28;20030;-66
2022/07/31 07:41:12;;;;;;;16.23;9.35;;;22.00;79.10;;;;;;5036134;28;20026;-72
2022/07/31 07:43:38;;;;;;;12.98;8.50;;;22.10;79.20;;;;;;5032765;28;20096;-74
2022/07/31 07:46:03;;;;;;;16.50;8.60;;;22.20;78.80;;;;;;5033987;28;20391;-75
2022/07/31 07:48:29;;;;;;;13.32;8.70;;;22.30;78.50;;;;;;5033696;28;20059;-68
2022/07/31 07:50:54;;;;;;;15.13;8.85;;;22.40;78.20;;;;;;5033028;28;20394;-58
2022/07/31 07:53:20;;;;;;;11.63;7.65;;;22.40;77.80;;;;;;5014750;28;20022;-56
2022/07/31 07:55:46;;;;;;;14.88;8.50;;;22.30;77.80;;;;;;5014110;28;20408;-54
2022/07/31 07:58:11;;;;;;;13.18;8.75;;;22.30;77.80;;;;;;5014155;28;20072;-61
2022/07/31 08:00:37;;;;;;;12.98;7.65;;;22.30;78.20;;;;;;5033861;28;20044;-58
2022/07/31 08:03:03;;;;;;;12.80;8.25;;;22.30;78.00;;;;;;5033806;28;20026;-58
2022/07/31 08:05:28;;;;;;;13.77;8.18;;;22.40;78.00;;;;;;5033726;28;20025;-55
2022/07/31 08:07:54;;;;;;;12.38;7.80;;;22.40;77.90;;;;;;5015259;28;20493;-59
2022/07/31 08:10:19;;;;;;;15.15;8.88;;;22.40;77.70;;;;;;5034317;28;20492;-55
2022/07/31 08:12:45;;;;;;;14.82;8.93;;;22.30;77.90;;;;;;5032769;28;20025;-51
2022/07/31 08:15:11;;;;;;;14.48;8.82;;;22.20;78.20;;;;;;5032845;28;20037;-55
2022/07/31 08:17:37;;;;;;;13.82;7.85;;;22.10;78.50;;;;;;5033636;28;20463;-65
2022/07/31 08:20:04;;;;;;;13.25;7.40;;;22.20;78.70;;;;;;5015445;28;20036;-60
2022/07/31 08:22:30;;;;;;;12.13;7.90;;;22.20;78.60;;;;;;5027820;28;21088;-58
2022/07/31 08:24:56;;;;;;;15.98;7.55;;;22.20;78.40;;;;;;5032611;28;20079;-58
2022/07/31 08:27:24;;;;;;;10.80;6.78;;;22.30;78.50;;;;;;5033212;28;20030;-62
2022/07/31 08:29:56;;;;;;;13.75;8.05;;;22.40;78.30;;;;;;5032445;28;20030;-55
2022/07/31 08:32:23;;;;;;;11.38;7.28;;;22.40;78.20;;;;;;5032230;28;20681;-58
2022/07/31 08:34:48;;;;;;;11.32;7.38;;;22.40;78.50;;;;;;5031786;28;20457;-52
2022/07/31 08:37:18;;;;;;;10.20;6.20;;;22.40;78.60;;;;;;5032100;28;20040;-58
2022/07/31 08:39:44;;;;;;;11.48;6.43;;;22.50;78.60;;;;;;5032424;28;20073;-56
2022/07/31 08:42:09;;;;;;;12.48;6.90;;;22.60;78.70;;;;;;5033557;28;20036;-58
2022/07/31 08:44:36;;;;;;;13.00;6.78;;;22.70;78.40;;;;;;5032531;28;20018;-56
2022/07/31 08:47:06;;;;;;;14.82;7.70;;;22.70;78.30;;;;;;5026784;28;20099;-60
2022/07/31 08:49:35;;;;;;;11.75;7.80;;;22.70;78.50;;;;;;5019445;28;20236;-57
2022/07/31 08:52:01;;;;;;;11.98;6.00;;;22.60;78.70;;;;;;5032406;28;20029;-57
2022/07/31 08:54:27;;;;;;;10.90;6.72;;;22.60;78.70;;;;;;5032878;28;20056;-66
2022/07/31 08:56:53;;;;;;;12.07;7.22;;;22.50;78.90;;;;;;5032172;28;20029;-69
2022/07/31 08:59:20;;;;;;;11.27;6.97;;;22.60;79.10;;;;;;5033938;28;20071;-66
2022/07/31 09:01:46;;;;;;;10.57;6.60;;;22.60;79.10;;;;;;5032014;28;20427;-68
2022/07/31 09:04:11;;;;;;;10.40;6.50;;;22.60;78.70;;;;;;5031664;28;20079;-66
2022/07/31 09:06:37;;;;;;;10.82;6.68;;;22.70;78.60;;;;;;5033082;28;20025;-70
2022/07/31 09:09:04;;;;;;;13.32;7.35;;;22.70;78.40;;;;;;5016545;28;20029;-68
2022/07/31 09:11:30;;;;;;;9.80;6.28;;;22.70;78.60;;;;;;5032093;28;20026;-72
2022/07/31 09:14:01;;;;;;;11.65;6.25;;;22.70;78.30;;;;;;5032383;28;20067;-71
2022/07/31 09:16:27;;;;;;;10.30;5.75;;;22.90;78.40;;;;;;5032748;28;20582;-72
2022/07/31 09:18:59;;;;;;;12.30;8.30;;;23.10;78.10;;;;;;5028557;28;20108;-75
2022/07/31 09:21:25;;;;;;;13.35;9.10;;;23.30;78.00;;;;;;5034803;28;20441;-72
2022/07/31 09:23:53;;;;;;;12.52;8.10;;;23.50;77.10;;;;;;5032321;28;20026;-75
2022/07/31 09:26:19;;;;;;;12.10;7.30;;;23.60;76.40;;;;;;5024707;28;20026;-72
2022/07/31 09:28:49;;;;;;;13.68;7.60;;;23.60;76.10;;;;;;5032468;28;20022;-78
2022/07/31 09:31:15;;;;;;;11.23;7.10;;;23.40;76.30;;;;;;5032695;28;20022;-76
2022/07/31 09:33:45;;;;;;;10.45;6.22;;;23.30;77.60;;;;;;5031929;28;20099;-67
2022/07/31 09:36:11;;;;;;;12.60;6.95;;;23.20;79.10;;;;;;5032065;28;20045;-73
2022/07/31 09:38:39;;;;;;;11.15;6.75;;;23.10;80.10;;;;;;5032190;28;20032;-65
2022/07/31 09:41:11;;;;;;;11.75;7.55;;;23.10;81.30;;;;;;5031617;28;20421;-71
2022/07/31 09:43:38;;;;;;;11.57;7.38;;;23.20;82.40;;;;;;5031908;28;20057;-70
2022/07/31 09:46:06;;;;;;;13.77;7.93;;;23.20;82.40;;;;;;5031457;28;20032;-71
2022/07/31 09:48:32;;;;;;;12.48;7.18;;;23.30;82.90;;;;;;5030754;28;20075;-75
2022/07/31 09:51:00;;;;;;;10.85;7.53;;;23.50;83.10;;;;;;5031744;28;20091;-77
2022/07/31 09:53:26;;;;;;;12.60;7.20;;;23.70;83.50;;;;;;5031301;28;20025;-76
2022/07/31 09:55:56;;;;;;;13.57;7.85;;;23.80;82.60;;;;;;5031824;28;20316;-77
2022/07/31 09:58:23;;;;;;;12.65;7.90;;;23.80;81.90;;;;;;5033067;28;20030;-77
2022/07/31 10:00:53;;;;;;;12.63;7.15;;;23.90;81.30;;;;;;5031001;28;20041;-75
2022/07/31 10:03:24;;;;;;;11.15;7.50;;;23.90;81.00;;;;;;5032044;28;20025;-76
2022/07/31 10:05:50;;;;;;;11.13;7.38;;;23.90;81.20;;;;;;5013725;28;20017;-77
2022/07/31 10:08:16;;;;;;;11.63;6.93;;;24.00;81.00;;;;;;5030578;28;20021;-73
2022/07/31 10:10:43;;;;;;;16.15;7.82;;;24.00;81.20;;;;;;5017877;28;20033;-73
2022/07/31 10:13:14;;;;;;;13.68;8.38;;;24.00;80.70;;;;;;5011354;28;20041;-57
2022/07/31 10:15:40;;;;;;;13.07;6.80;;;24.00;79.90;;;;;;5011070;28;20037;-64
2022/07/31 10:18:08;;;;;;;10.93;6.47;;;24.00;80.10;;;;;;5028938;28;20057;-58
2022/07/31 10:20:34;;;;;;;13.68;7.32;;;23.90;80.30;;;;;;5030387;28;20517;-59
2022/07/31 10:23:14;;;;;;;15.63;7.75;;;23.90;81.00;;;;;;5029979;28;20109;-69
2022/07/31 10:25:46;;;;;;;10.82;6.75;;;23.90;80.40;;;;;;5032576;28;20096;-57
2022/07/31 10:28:13;;;;;;;11.00;6.25;;;23.90;80.40;;;;;;5030341;28;20079;-61
2022/07/31 10:30:38;;;;;;;11.70;6.40;;;24.00;81.10;;;;;;5031389;28;20056;-57
2022/07/31 10:33:07;;;;;;;12.68;7.03;;;24.00;80.00;;;;;;5030520;28;20025;-57
2022/07/31 10:35:41;;;;;;;12.40;6.97;;;24.00;80.10;;;;;;5030606;28;20050;-60
2022/07/31 10:38:17;;;;;;;13.13;7.63;;;24.10;80.90;;;;;;5030946;28;20087;-55
2022/07/31 10:40:51;;;;;;;13.13;7.43;;;24.10;81.10;;;;;;5031508;28;20053;-65
2022/07/31 10:43:23;;;;;;;14.75;8.40;;;24.10;81.10;;;;;;5030435;28;20044;-58
2022/07/31 10:45:51;;;;;;;13.57;7.85;;;24.10;81.70;;;;;;5030604;28;20120;-55
2022/07/31 10:48:18;;;;;;;13.57;8.75;;;24.20;81.80;;;;;;5046156;28;20033;-58
2022/07/31 10:50:44;;;;;;;13.65;8.50;;;24.20;81.70;;;;;;5012462;28;20065;-61
2022/07/31 10:53:12;;;;;;;16.23;8.52;;;24.10;81.50;;;;;;5029893;28;20027;-58
2022/07/31 10:55:38;;;;;;;11.70;7.25;;;24.20;81.80;;;;;;5029650;28;20386;-76
2022/07/31 10:58:15;;;;;;;13.20;7.70;;;24.20;82.20;;;;;;5028336;28;20022;-56
2022/07/31 11:00:42;;;;;;;13.55;8.15;;;24.30;81.60;;;;;;5019915;28;20034;-57
2022/07/31 11:03:18;;;;;;;17.02;8.70;;;24.40;81.50;;;;;;5010750;28;20414;-58
2022/07/31 11:05:55;;;;;;;16.40;10.65;;;24.40;81.70;;;;;;5018778;28;20381;-57
2022/07/31 11:08:21;;;;;;;15.25;8.32;;;24.30;82.20;;;;;;5029419;28;20586;-75
2022/07/31 11:10:54;;;;;;;15.48;9.38;;;24.30;82.30;;;;;;5020946;28;20490;-69
2022/07/31 11:13:22;;;;;;;17.73;8.80;;;24.40;82.50;;;;;;5029961;28;20125;-73
2022/07/31 11:16:02;;;;;;;13.93;8.80;;;24.40;82.00;;;;;;5034478;28;20072;-58
2022/07/31 11:18:28;;;;;;;14.23;9.43;;;24.50;82.90;;;;;;5015947;28;20029;-75
2022/07/31 11:21:01;;;;;;;13.32;8.52;;;24.50;82.60;;;;;;5032474;28;20047;-54
2022/07/31 11:23:32;;;;;;;13.30;8.60;;;24.70;81.80;;;;;;5030710;28;20130;-73
2022/07/31 11:26:00;;;;;;;14.73;9.38;;;24.80;81.60;;;;;;5030319;28;20028;-66
2022/07/31 11:28:26;;;;;;;13.77;8.98;;;25.10;80.70;;;;;;5030736;28;20030;-75
2022/07/31 11:31:01;;;;;;;14.75;9.00;;;25.20;80.10;;;;;;5030360;28;20049;-70
2022/07/31 11:33:45;;;;;;;12.90;9.32;;;25.10;79.60;;;;;;5029807;28;20053;-62
2022/07/31 11:36:16;;;;;;;15.82;10.00;;;24.90;79.70;;;;;;5046025;28;20096;-71
2022/07/31 11:38:48;;;;;;;13.32;9.35;;;24.70;80.60;;;;;;5029924;28;20017;-60
2022/07/31 11:41:14;;;;;;;13.95;9.55;;;24.40;82.40;;;;;;5029457;28;20402;-70
2022/07/31 11:43:50;;;;;;;15.15;9.32;;;24.10;83.70;;;;;;5028641;28;20029;-71
2022/07/31 11:46:25;;;;;;;13.95;9.18;;;24.10;84.40;;;;;;5024241;28;20104;-72
2022/07/31 11:48:52;;;;;;;16.45;11.10;;;24.10;84.90;;;;;;5028014;28;20033;-75
2022/07/31 11:51:18;;;;;;;13.85;9.15;;;24.10;85.10;;;;;;5012808;28;20478;-75
2022/07/31 11:53:45;;;;;;;14.80;10.40;;;24.00;85.90;;;;;;5012251;28;20068;-74
2022/07/31 11:56:11;;;;;;;17.27;11.70;;;23.90;86.60;;;;;;5026892;28;20440;-73
2022/07/31 11:58:37;;;;;;;15.48;10.57;;;23.90;87.10;;;;;;5019971;28;20054;-77
2022/07/31 12:01:04;;;;;;;16.52;10.77;;;24.10;87.00;;;;;;5015032;28;20033;-73
2022/07/31 12:03:35;;;;;;;15.75;10.50;;;24.40;86.00;;;;;;5012851;28;20118;-74
2022/07/31 12:06:03;;;;;;;15.65;11.07;;;24.60;86.00;;;;;;5029284;28;20466;-74
2022/07/31 12:08:29;;;;;;;15.05;10.63;;;24.80;85.10;;;;;;5029848;28;20104;-77
2022/07/31 12:10:56;;;;;;;17.35;10.55;;;24.70;84.90;;;;;;5008680;28;20116;-63
2022/07/31 12:13:24;;;;;;;16.02;10.25;;;24.60;85.10;;;;;;5020691;28;20022;-74
2022/07/31 12:15:54;;;;;;;15.70;10.73;;;24.60;85.50;;;;;;5002945;28;20041;-76
2022/07/31 12:18:20;;;;;;;16.33;10.67;;;24.80;85.80;;;;;;5041622;28;20070;-71
2022/07/31 12:20:54;;;;;;;14.98;10.38;;;25.00;85.60;;;;;;5032986;28;20025;-60
2022/07/31 12:23:20;;;;;;;15.90;10.95;;;25.40;85.00;;;;;;5026710;28;20401;-72
2022/07/31 12:25:46;;;;;;;14.32;10.25;;;25.80;84.00;;;;;;5019587;28;20469;-53
2022/07/31 12:28:16;;;;;;;13.48;9.27;;;26.10;82.10;;;;;;5032969;28;20022;-77
2022/07/31 12:30:43;;;;;;;13.30;10.17;;;26.30;81.10;;;;;;5033113;28;20080;-76
2022/07/31 12:33:10;;;;;;;14.80;10.48;;;26.50;80.50;;;;;;5026621;28;20053;-57
2022/07/31 12:35:40;;;;;;;12.05;9.18;;;26.50;78.80;;;;;;5034206;28;20044;-49
2022/07/31 12:38:06;;;;;;;14.88;10.23;;;26.30;77.70;;;;;;5032862;28;20445;-56
2022/07/31 12:40:32;;;;;;;14.75;9.98;;;26.00;78.40;;;;;;5032412;28;20041;-71
2022/07/31 12:42:58;;;;;;;13.60;10.60;;;25.80;79.00;;;;;;5031869;28;20065;-56